Time;durP1;ratioP1;P1;durP2;ratioP2;P2;SDS_P1;SDS_P2;PMS_P1;PMS_P2;Temp;Humidity;BMP_temperature;BMP_pressure;BME280_temperature;BME280_humidity;BME280_pressure;Samples;Min_cycle;Max_cycle;Signal;HPM_P1;HPM_P2
2023/04/19 00:00:09;;;;;;;21.47;15.87;;;;;;;;;;5015983;28;20560;-69
2023/04/19 00:02:35;;;;;;;19.73;17.33;;;;;;;;;;5015435;28;20218;-67
2023/04/19 00:05:01;;;;;;;20.53;17.20;;;;;;;;;;5015238;28;20229;-66
2023/04/19 00:07:27;;;;;;;18.40;15.87;;;;;;;;;;4997829;28;20271;-67
2023/04/19 00:09:53;;;;;;;20.27;16.03;;;;;;;;;;5015269;28;20259;-67
2023/04/19 00:12:19;;;;;;;19.20;16.10;;;;;;;;;;4997671;28;20184;-67
2023/04/19 00:14:45;;;;;;;21.07;17.17;;;;;;;;;;5015120;28;20176;-68
2023/04/19 00:17:11;;;;;;;22.43;17.40;;;;;;;;;;5014948;28;20211;-68
2023/04/19 00:19:37;;;;;;;16.47;12.67;;;;;;;;;;4997738;28;20218;-68
2023/04/19 00:22:03;;;;;;;21.43;17.17;;;;;;;;;;5015121;28;20184;-68
2023/04/19 00:24:30;;;;;;;21.60;16.27;;;;;;;;;;4997289;28;20278;-67
2023/04/19 00:26:56;;;;;;;19.27;15.90;;;;;;;;;;5014975;28;20548;-68
2023/04/19 00:29:22;;;;;;;21.50;16.73;;;;;;;;;;5014858;28;20176;-68
2023/04/19 00:31:48;;;;;;;20.90;16.80;;;;;;;;;;5014951;28;20176;-68
2023/04/19 00:34:14;;;;;;;15.57;13.00;;;;;;;;;;5015122;28;20298;-67
2023/04/19 00:36:40;;;;;;;20.40;13.47;;;;;;;;;;5014763;28;20238;-68
2023/04/19 00:39:06;;;;;;;20.97;15.63;;;;;;;;;;5014168;28;20184;-67
2023/04/19 00:41:32;;;;;;;20.07;17.97;;;;;;;;;;5014955;28;20175;-68
2023/04/19 00:43:58;;;;;;;18.30;15.40;;;;;;;;;;5014822;28;20582;-69
2023/04/19 00:46:24;;;;;;;19.20;16.37;;;;;;;;;;5014575;28;20214;-68
2023/04/19 00:48:50;;;;;;;18.53;15.43;;;;;;;;;;5014550;28;20179;-68
2023/04/19 00:51:16;;;;;;;18.30;16.37;;;;;;;;;;4996956;28;20589;-67
2023/04/19 00:53:42;;;;;;;15.80;14.03;;;;;;;;;;4996957;28;20654;-68
2023/04/19 00:56:09;;;;;;;18.53;15.43;;;;;;;;;;5014375;28;20580;-66
2023/04/19 00:58:36;;;;;;;18.50;15.90;;;;;;;;;;5014775;28;20612;-68
2023/04/19 01:01:02;;;;;;;18.70;14.93;;;;;;;;;;5014972;28;20179;-67
2023/04/19 01:03:28;;;;;;;22.80;16.47;;;;;;;;;;5014730;28;20657;-68
2023/04/19 01:05:55;;;;;;;17.73;15.93;;;;;;;;;;5014126;28;20203;-67
2023/04/19 01:08:21;;;;;;;18.23;14.97;;;;;;;;;;5014338;28;20176;-68
2023/04/19 01:10:47;;;;;;;18.70;15.97;;;;;;;;;;5014288;28;20176;-67
2023/04/19 01:13:13;;;;;;;20.63;16.83;;;;;;;;;;5014262;28;20203;-68
2023/04/19 01:15:39;;;;;;;16.37;13.53;;;;;;;;;;5013953;28;20230;-68
2023/04/19 01:18:05;;;;;;;17.43;15.63;;;;;;;;;;5014452;28;20175;-68
2023/04/19 01:20:31;;;;;;;20.47;15.00;;;;;;;;;;5014556;28;20642;-67
2023/04/19 01:22:57;;;;;;;17.17;13.57;;;;;;;;;;5014146;28;20196;-67
2023/04/19 01:25:23;;;;;;;22.90;16.97;;;;;;;;;;5014017;28;20238;-67
2023/04/19 01:27:49;;;;;;;23.23;16.37;;;;;;;;;;5013944;28;20223;-67
2023/04/19 01:30:15;;;;;;;19.60;16.70;;;;;;;;;;5014192;28;20238;-67
2023/04/19 01:32:41;;;;;;;20.83;17.00;;;;;;;;;;5013984;28;20533;-68
2023/04/19 01:35:09;;;;;;;17.40;15.40;;;;;;;;;;5013882;28;20186;-67
2023/04/19 01:37:35;;;;;;;16.00;13.23;;;;;;;;;;4996520;28;20630;-68
2023/04/19 01:40:02;;;;;;;20.00;15.90;;;;;;;;;;5014058;28;20551;-66
2023/04/19 01:42:28;;;;;;;18.13;13.77;;;;;;;;;;4996166;28;20280;-67
2023/04/19 01:44:54;;;;;;;19.13;13.93;;;;;;;;;;5013802;28;20284;-67
2023/04/19 01:47:21;;;;;;;21.80;17.40;;;;;;;;;;5013509;28;20204;-68
2023/04/19 01:49:47;;;;;;;22.53;17.53;;;;;;;;;;4995957;28;20207;-68
2023/04/19 01:52:13;;;;;;;17.80;13.53;;;;;;;;;;5013098;28;20187;-69
2023/04/19 01:54:39;;;;;;;19.07;15.97;;;;;;;;;;4995973;28;20188;-68
2023/04/19 01:57:04;;;;;;;17.17;14.20;;;;;;;;;;5013410;28;20203;-68
2023/04/19 01:59:30;;;;;;;17.40;14.87;;;;;;;;;;4995979;28;20183;-67
2023/04/19 02:01:56;;;;;;;22.00;16.27;;;;;;;;;;5013525;28;20191;-68
2023/04/19 02:04:22;;;;;;;18.30;15.47;;;;;;;;;;5013654;28;20199;-68
2023/04/19 02:06:48;;;;;;;19.73;15.17;;;;;;;;;;5013330;28;20227;-67
2023/04/19 02:09:14;;;;;;;21.37;16.47;;;;;;;;;;4995900;28;20553;-67
2023/04/19 02:11:40;;;;;;;21.67;16.43;;;;;;;;;;5013294;28;20172;-66
2023/04/19 02:14:06;;;;;;;18.90;14.80;;;;;;;;;;4995858;28;20179;-67
2023/04/19 02:16:32;;;;;;;20.10;15.03;;;;;;;;;;5013172;28;20246;-67
2023/04/19 02:18:58;;;;;;;19.13;16.10;;;;;;;;;;5013849;28;20201;-67
2023/04/19 02:21:24;;;;;;;20.90;16.40;;;;;;;;;;5013315;28;20180;-67
2023/04/19 02:23:50;;;;;;;18.33;15.60;;;;;;;;;;5013698;28;20651;-67
2023/04/19 02:26:16;;;;;;;20.80;16.57;;;;;;;;;;5013309;28;20214;-67
2023/04/19 02:28:42;;;;;;;17.60;15.33;;;;;;;;;;5013600;28;20226;-68
2023/04/19 02:31:08;;;;;;;18.43;15.83;;;;;;;;;;5013264;28;20168;-67
2023/04/19 02:33:35;;;;;;;19.60;16.27;;;;;;;;;;5013607;28;20259;-67
2023/04/19 02:36:01;;;;;;;20.43;15.13;;;;;;;;;;5013107;28;20337;-67
2023/04/19 02:38:27;;;;;;;17.83;14.93;;;;;;;;;;4995608;28;20646;-67
2023/04/19 02:40:53;;;;;;;16.97;15.10;;;;;;;;;;5013163;28;20184;-67
2023/04/19 02:43:18;;;;;;;17.07;14.53;;;;;;;;;;5013560;28;20207;-68
2023/04/19 02:45:44;;;;;;;17.60;14.83;;;;;;;;;;5013039;28;20219;-68
2023/04/19 02:48:10;;;;;;;16.00;13.97;;;;;;;;;;5013535;28;20183;-67
2023/04/19 02:50:40;;;;;;;19.07;14.33;;;;;;;;;;5013147;28;20168;-67
2023/04/19 02:53:06;;;;;;;18.17;14.23;;;;;;;;;;5013054;28;20183;-67
2023/04/19 02:55:32;;;;;;;19.70;14.23;;;;;;;;;;5013365;28;20195;-68
2023/04/19 02:57:58;;;;;;;15.27;13.47;;;;;;;;;;5013131;28;20643;-68
2023/04/19 03:00:24;;;;;;;15.20;13.50;;;;;;;;;;5013104;28;20184;-67
2023/04/19 03:02:50;;;;;;;15.83;12.83;;;;;;;;;;4997210;28;20180;-68
2023/04/19 03:05:16;;;;;;;14.50;12.80;;;;;;;;;;5016872;28;20238;-68
2023/04/19 03:07:42;;;;;;;18.43;11.90;;;;;;;;;;4999164;28;20180;-68
2023/04/19 03:10:08;;;;;;;13.57;12.13;;;;;;;;;;5016906;28;20172;-68
2023/04/19 03:12:34;;;;;;;15.07;12.17;;;;;;;;;;5016568;28;20704;-68
2023/04/19 03:15:00;;;;;;;16.00;11.83;;;;;;;;;;5016294;28;20180;-69
2023/04/19 03:17:26;;;;;;;12.37;10.87;;;;;;;;;;5016584;28;20184;-68
2023/04/19 03:19:52;;;;;;;12.37;10.57;;;;;;;;;;5016379;28;20183;-68
2023/04/19 03:22:18;;;;;;;13.17;11.47;;;;;;;;;;5016253;28;20180;-67
2023/04/19 03:24:44;;;;;;;12.03;8.63;;;;;;;;;;4998644;28;20207;-68
2023/04/19 03:27:11;;;;;;;11.90;9.47;;;;;;;;;;5016126;28;20198;-70
2023/04/19 03:29:37;;;;;;;12.27;10.83;;;;;;;;;;5001201;28;20188;-70
2023/04/19 03:32:03;;;;;;;9.70;8.70;;;;;;;;;;5017908;28;20293;-71
2023/04/19 03:34:29;;;;;;;12.57;9.47;;;;;;;;;;5017692;28;20188;-70
2023/04/19 03:36:55;;;;;;;11.83;9.53;;;;;;;;;;5018302;28;20646;-70
2023/04/19 03:39:21;;;;;;;12.63;10.50;;;;;;;;;;5000444;28;20188;-69
2023/04/19 03:41:47;;;;;;;12.63;8.37;;;;;;;;;;5018082;28;20184;-70
2023/04/19 03:44:13;;;;;;;10.43;9.33;;;;;;;;;;4999453;28;20262;-70
2023/04/19 03:46:39;;;;;;;11.73;8.97;;;;;;;;;;5015973;28;20200;-67
2023/04/19 03:49:05;;;;;;;10.00;8.17;;;;;;;;;;5016472;28;20630;-69
2023/04/19 03:51:31;;;;;;;11.30;9.20;;;;;;;;;;5016000;28;20175;-68
2023/04/19 03:53:57;;;;;;;9.90;8.30;;;;;;;;;;5016497;28;20179;-68
2023/04/19 03:56:23;;;;;;;11.03;7.83;;;;;;;;;;5016148;28;20359;-69
2023/04/19 03:58:52;;;;;;;11.10;9.87;;;;;;;;;;5016280;28;20242;-68
2023/04/19 04:01:18;;;;;;;12.00;8.93;;;;;;;;;;5015989;28;20212;-68
2023/04/19 04:03:44;;;;;;;7.93;6.57;;;;;;;;;;5016174;28;20646;-69
2023/04/19 04:06:10;;;;;;;12.53;8.30;;;;;;;;;;5016032;28;20282;-69
2023/04/19 04:08:36;;;;;;;10.83;7.90;;;;;;;;;;5015666;28;20180;-69
2023/04/19 04:11:02;;;;;;;9.10;7.70;;;;;;;;;;5015518;28;20267;-68
2023/04/19 04:13:28;;;;;;;9.83;7.43;;;;;;;;;;5015021;28;20279;-68
2023/04/19 04:15:54;;;;;;;9.30;6.77;;;;;;;;;;4997622;28;20226;-68
2023/04/19 04:18:20;;;;;;;9.00;8.10;;;;;;;;;;5015903;28;20191;-66
2023/04/19 04:20:46;;;;;;;10.07;7.10;;;;;;;;;;4997847;28;20191;-68
2023/04/19 04:23:13;;;;;;;9.73;6.50;;;;;;;;;;5015200;28;20215;-67
2023/04/19 04:25:39;;;;;;;10.53;5.97;;;;;;;;;;5015148;28;20207;-69
2023/04/19 04:28:05;;;;;;;7.70;6.90;;;;;;;;;;5015181;28;20189;-68
2023/04/19 04:30:32;;;;;;;10.53;6.10;;;;;;;;;;5016076;28;20514;-69
2023/04/19 04:32:58;;;;;;;7.73;6.00;;;;;;;;;;5015551;28;20223;-68
2023/04/19 04:35:25;;;;;;;7.07;6.03;;;;;;;;;;4997547;28;20226;-69
2023/04/19 04:37:52;;;;;;;12.23;6.63;;;;;;;;;;5014868;28;20203;-69
2023/04/19 04:40:19;;;;;;;6.30;5.30;;;;;;;;;;5014734;28;20183;-68
2023/04/19 04:42:45;;;;;;;7.23;6.50;;;;;;;;;;5015236;28;20259;-69
2023/04/19 04:45:11;;;;;;;9.70;6.30;;;;;;;;;;5014814;28;20282;-68
2023/04/19 04:47:37;;;;;;;7.93;6.17;;;;;;;;;;5014900;28;20175;-68
2023/04/19 04:50:03;;;;;;;9.37;6.67;;;;;;;;;;4996940;28;20665;-68
2023/04/19 04:52:29;;;;;;;8.23;6.10;;;;;;;;;;5014595;28;20244;-68
2023/04/19 04:54:55;;;;;;;7.77;6.10;;;;;;;;;;5014509;28;20702;-69
2023/04/19 04:57:21;;;;;;;7.23;6.27;;;;;;;;;;5014710;28;20199;-69
2023/04/19 04:59:47;;;;;;;8.17;6.50;;;;;;;;;;5014940;28;20542;-67
2023/04/19 05:02:14;;;;;;;7.70;5.90;;;;;;;;;;5014299;28;20666;-68
2023/04/19 05:04:40;;;;;;;7.47;6.53;;;;;;;;;;5014638;28;20214;-68
2023/04/19 05:07:06;;;;;;;10.60;7.83;;;;;;;;;;5014095;28;20577;-68
2023/04/19 05:09:32;;;;;;;11.03;6.27;;;;;;;;;;5014253;28;20274;-68
2023/04/19 05:11:57;;;;;;;8.17;6.83;;;;;;;;;;5014166;28;20658;-68
2023/04/19 05:14:24;;;;;;;10.63;6.60;;;;;;;;;;5014433;28;20187;-69
2023/04/19 05:16:50;;;;;;;6.13;5.53;;;;;;;;;;5013934;28;20274;-69
2023/04/19 05:19:16;;;;;;;9.47;7.03;;;;;;;;;;4996401;28;20183;-68
2023/04/19 05:21:41;;;;;;;7.93;7.10;;;;;;;;;;5014032;28;20241;-68
2023/04/19 05:24:08;;;;;;;8.00;6.80;;;;;;;;;;4996385;28;20234;-69
2023/04/19 05:26:35;;;;;;;6.80;6.03;;;;;;;;;;5013756;28;20239;-67
2023/04/19 05:29:01;;;;;;;7.63;6.50;;;;;;;;;;5014013;28;20180;-68
2023/04/19 05:31:27;;;;;;;9.70;6.93;;;;;;;;;;5013991;28;20254;-68
2023/04/19 05:33:53;;;;;;;8.63;5.97;;;;;;;;;;5013838;28;20188;-68
2023/04/19 05:36:18;;;;;;;8.10;6.10;;;;;;;;;;5013732;28;20204;-67
2023/04/19 05:38:44;;;;;;;9.77;6.93;;;;;;;;;;5014095;28;20183;-66
2023/04/19 05:41:10;;;;;;;12.43;7.37;;;;;;;;;;4996238;28;20677;-67
2023/04/19 05:43:36;;;;;;;7.83;6.40;;;;;;;;;;5013830;28;20180;-67
2023/04/19 05:46:02;;;;;;;9.13;6.87;;;;;;;;;;5013875;28;20673;-67
2023/04/19 05:48:29;;;;;;;10.47;7.03;;;;;;;;;;5013959;28;20182;-69
2023/04/19 05:50:56;;;;;;;7.63;5.70;;;;;;;;;;5013708;28;20646;-68
2023/04/19 05:53:22;;;;;;;9.30;6.73;;;;;;;;;;5013866;28;20275;-67
2023/04/19 05:55:50;;;;;;;8.33;6.37;;;;;;;;;;4995951;28;20215;-69
2023/04/19 05:58:16;;;;;;;8.70;7.40;;;;;;;;;;5013734;28;20199;-68
2023/04/19 06:00:42;;;;;;;7.37;4.70;;;;;;;;;;5013823;28;20191;-69
2023/04/19 06:03:08;;;;;;;7.57;6.10;;;;;;;;;;5013551;28;20184;-68
2023/04/19 06:05:34;;;;;;;8.10;7.00;;;;;;;;;;5013711;28;20279;-69
2023/04/19 06:08:00;;;;;;;13.00;7.13;;;;;;;;;;5014010;28;20184;-69
2023/04/19 06:10:26;;;;;;;9.37;7.20;;;;;;;;;;4995816;28;20190;-68
2023/04/19 06:12:52;;;;;;;9.33;6.00;;;;;;;;;;5013741;28;20257;-67
2023/04/19 06:15:18;;;;;;;10.00;7.13;;;;;;;;;;5013546;28;20247;-67
2023/04/19 06:17:44;;;;;;;8.70;5.93;;;;;;;;;;5013588;28;20238;-68
2023/04/19 06:20:11;;;;;;;7.73;5.87;;;;;;;;;;5013433;28;20187;-69
2023/04/19 06:22:44;;;;;;;7.40;6.13;;;;;;;;;;5013523;28;20176;-68
2023/04/19 06:25:10;;;;;;;7.93;6.17;;;;;;;;;;5013531;28;20210;-69
2023/04/19 06:27:36;;;;;;;6.43;5.30;;;;;;;;;;4995852;28;20187;-69
2023/04/19 06:30:03;;;;;;;7.77;6.43;;;;;;;;;;5013526;28;20306;-68
2023/04/19 06:32:29;;;;;;;8.10;5.80;;;;;;;;;;4995938;28;20238;-68
2023/04/19 06:34:55;;;;;;;12.87;6.73;;;;;;;;;;5013797;28;20661;-69
2023/04/19 06:37:20;;;;;;;7.57;5.60;;;;;;;;;;5014572;28;20761;-68
2023/04/19 06:39:48;;;;;;;10.27;5.00;;;;;;;;;;5018028;28;20206;-68
2023/04/19 06:42:14;;;;;;;11.43;7.80;;;;;;;;;;5000026;28;20240;-68
2023/04/19 06:44:40;;;;;;;8.47;6.73;;;;;;;;;;5017423;28;20583;-67
2023/04/19 06:47:06;;;;;;;8.67;6.47;;;;;;;;;;4999475;28;20192;-68
2023/04/19 06:49:32;;;;;;;9.90;6.90;;;;;;;;;;5016826;28;20222;-67
2023/04/19 06:51:59;;;;;;;9.00;6.03;;;;;;;;;;5017123;28;20175;-67
2023/04/19 06:54:25;;;;;;;9.37;5.30;;;;;;;;;;5017107;28;20184;-68
2023/04/19 06:56:51;;;;;;;7.30;5.57;;;;;;;;;;5016728;28;20700;-67
2023/04/19 06:59:18;;;;;;;17.00;6.40;;;;;;;;;;5016796;28;20263;-69
2023/04/19 07:01:44;;;;;;;7.97;6.30;;;;;;;;;;4999256;28;20213;-69
2023/04/19 07:04:10;;;;;;;8.57;5.63;;;;;;;;;;5016469;28;20581;-67
2023/04/19 07:06:37;;;;;;;6.93;5.43;;;;;;;;;;5016574;28;20233;-66
2023/04/19 07:09:03;;;;;;;8.90;4.27;;;;;;;;;;5016575;28;20262;-68
2023/04/19 07:11:29;;;;;;;5.73;4.67;;;;;;;;;;4998938;28;20211;-67
2023/04/19 07:13:56;;;;;;;10.37;5.57;;;;;;;;;;5016456;28;20234;-68
2023/04/19 07:16:22;;;;;;;12.13;6.83;;;;;;;;;;5016380;28;20693;-68
2023/04/19 07:18:48;;;;;;;7.73;5.37;;;;;;;;;;5016672;28;20234;-67
2023/04/19 07:21:14;;;;;;;8.83;6.03;;;;;;;;;;5016326;28;20179;-67
2023/04/19 07:23:40;;;;;;;9.20;5.30;;;;;;;;;;5016093;28;20176;-68
2023/04/19 07:26:06;;;;;;;8.03;5.37;;;;;;;;;;5016169;28;20666;-67
2023/04/19 07:28:32;;;;;;;5.70;4.73;;;;;;;;;;5016246;28;20180;-68
2023/04/19 07:30:59;;;;;;;8.80;4.80;;;;;;;;;;5016440;28;20212;-67
2023/04/19 07:33:26;;;;;;;4.27;3.53;;;;;;;;;;5016677;28;20176;-68
2023/04/19 07:35:53;;;;;;;7.53;5.23;;;;;;;;;;5015875;28;20196;-68
2023/04/19 07:38:19;;;;;;;6.50;5.13;;;;;;;;;;5015971;28;20207;-67
2023/04/19 07:40:45;;;;;;;7.60;5.23;;;;;;;;;;5015992;28;20176;-67
2023/04/19 07:43:11;;;;;;;7.50;5.20;;;;;;;;;;5016284;28;20210;-67
2023/04/19 07:45:37;;;;;;;6.70;4.93;;;;;;;;;;4998229;28;20219;-67
2023/04/19 07:48:03;;;;;;;5.00;3.63;;;;;;;;;;5015363;28;20195;-68
2023/04/19 07:50:29;;;;;;;9.67;5.43;;;;;;;;;;5014847;28;20343;-69
2023/04/19 07:52:55;;;;;;;8.00;4.20;;;;;;;;;;4998175;28;20183;-67
2023/04/19 07:55:21;;;;;;;8.77;5.43;;;;;;;;;;4998002;28;20674;-67
2023/04/19 07:57:47;;;;;;;6.03;4.40;;;;;;;;;;5012154;23;20251;-67
2023/04/19 08:00:14;;;;;;;7.10;5.67;;;;;;;;;;5015550;28;20617;-69
2023/04/19 08:02:47;;;;;;;7.53;4.37;;;;;;;;;;4997867;28;20194;-69
2023/04/19 08:05:16;;;;;;;6.13;4.53;;;;;;;;;;5015427;28;20221;-69
2023/04/19 08:07:42;;;;;;;5.43;3.87;;;;;;;;;;5015301;28;20202;-69
2023/04/19 08:10:08;;;;;;;5.70;3.87;;;;;;;;;;4997705;28;20176;-69
2023/04/19 08:12:34;;;;;;;7.53;4.73;;;;;;;;;;4997601;28;20179;-71
2023/04/19 08:15:00;;;;;;;7.93;5.10;;;;;;;;;;5015521;28;20184;-69
2023/04/19 08:17:26;;;;;;;5.67;3.70;;;;;;;;;;5015087;28;20290;-69
2023/04/19 08:19:52;;;;;;;6.77;4.50;;;;;;;;;;4997400;28;20665;-69
2023/04/19 08:22:20;;;;;;;5.37;4.10;;;;;;;;;;4997573;28;20180;-70
2023/04/19 08:24:46;;;;;;;5.50;3.83;;;;;;;;;;4997269;28;20203;-69
2023/04/19 08:27:12;;;;;;;7.10;4.10;;;;;;;;;;5014872;28;20246;-70
2023/04/19 08:29:38;;;;;;;7.03;4.47;;;;;;;;;;5015291;28;20179;-70
2023/04/19 08:32:04;;;;;;;5.00;3.03;;;;;;;;;;4997316;28;20184;-69
2023/04/19 08:34:30;;;;;;;5.07;3.93;;;;;;;;;;4997328;28;20192;-71
2023/04/19 08:36:56;;;;;;;4.77;3.40;;;;;;;;;;5014808;28;20191;-69
2023/04/19 08:39:22;;;;;;;7.87;4.20;;;;;;;;;;5014908;28;20563;-70
2023/04/19 08:41:49;;;;;;;3.27;2.97;;;;;;;;;;5014774;28;20176;-69
2023/04/19 08:44:15;;;;;;;5.70;3.50;;;;;;;;;;4997013;28;20204;-69
2023/04/19 08:46:42;;;;;;;7.17;3.90;;;;;;;;;;4996925;28;20214;-70
2023/04/19 08:49:08;;;;;;;11.00;5.70;;;;;;;;;;5014895;28;20222;-70
2023/04/19 08:51:35;;;;;;;7.80;4.43;;;;;;;;;;5014590;28;20642;-70
2023/04/19 08:54:04;;;;;;;5.60;3.20;;;;;;;;;;5014514;28;20226;-69
2023/04/19 08:56:30;;;;;;;7.50;3.77;;;;;;;;;;5014422;28;20203;-70
2023/04/19 08:58:56;;;;;;;5.17;4.37;;;;;;;;;;4996884;28;20180;-69
2023/04/19 09:01:22;;;;;;;6.73;4.10;;;;;;;;;;4996438;28;20567;-70
2023/04/19 09:03:49;;;;;;;9.43;3.03;;;;;;;;;;5014355;28;20179;-69
2023/04/19 09:06:15;;;;;;;5.53;3.30;;;;;;;;;;4997160;28;20176;-70
2023/04/19 09:08:41;;;;;;;4.63;3.20;;;;;;;;;;5015068;28;20176;-69
2023/04/19 09:11:08;;;;;;;4.40;3.47;;;;;;;;;;5014674;28;20638;-70
2023/04/19 09:13:39;;;;;;;4.40;2.90;;;;;;;;;;5014822;28;20254;-70
2023/04/19 09:16:06;;;;;;;5.70;3.60;;;;;;;;;;5014671;28;20298;-69
2023/04/19 09:18:33;;;;;;;4.33;2.87;;;;;;;;;;5014350;28;20318;-70
2023/04/19 09:20:59;;;;;;;8.40;3.20;;;;;;;;;;4996779;28;20180;-70
2023/04/19 09:23:27;;;;;;;4.50;3.20;;;;;;;;;;5014254;28;20697;-70
2023/04/19 09:26:03;;;;;;;4.13;3.50;;;;;;;;;;5014190;28;20196;-69
2023/04/19 09:28:30;;;;;;;6.73;3.30;;;;;;;;;;5014103;28;20168;-70
2023/04/19 09:30:56;;;;;;;4.57;3.43;;;;;;;;;;5014047;28;20647;-70
2023/04/19 09:33:32;;;;;;;4.30;3.40;;;;;;;;;;5013968;28;20587;-70
2023/04/19 09:35:59;;;;;;;3.00;2.70;;;;;;;;;;5013700;28;20184;-70
2023/04/19 09:38:25;;;;;;;3.67;2.80;;;;;;;;;;5013654;28;20747;-70
2023/04/19 09:40:51;;;;;;;4.23;3.37;;;;;;;;;;5013813;28;20175;-70
2023/04/19 09:43:26;;;;;;;4.93;3.33;;;;;;;;;;4996040;28;20191;-70
2023/04/19 09:45:52;;;;;;;8.73;3.07;;;;;;;;;;4996020;28;20253;-70
2023/04/19 09:48:18;;;;;;;6.53;3.33;;;;;;;;;;4995743;28;20204;-70
2023/04/19 09:50:52;;;;;;;5.03;3.00;;;;;;;;;;4995868;28;20176;-70
2023/04/19 09:53:19;;;;;;;4.57;3.10;;;;;;;;;;4996103;28;20180;-70
2023/04/19 09:55:46;;;;;;;5.53;3.00;;;;;;;;;;5013595;28;20179;-70
2023/04/19 09:58:12;;;;;;;4.57;3.03;;;;;;;;;;5013440;28;20697;-70
2023/04/19 10:00:40;;;;;;;5.23;3.07;;;;;;;;;;5013489;28;20187;-70
2023/04/19 10:03:08;;;;;;;5.27;2.83;;;;;;;;;;4995933;28;20658;-70
2023/04/19 10:05:36;;;;;;;3.97;2.63;;;;;;;;;;5013351;28;20203;-70
2023/04/19 10:08:02;;;;;;;3.90;2.40;;;;;;;;;;5013434;28;20686;-70
2023/04/19 10:10:29;;;;;;;3.93;3.07;;;;;;;;;;4995862;28;20187;-70
2023/04/19 10:12:57;;;;;;;4.10;3.03;;;;;;;;;;5012597;28;20172;-70
2023/04/19 10:15:23;;;;;;;2.80;2.40;;;;;;;;;;5013317;28;20176;-70
2023/04/19 10:17:49;;;;;;;3.57;2.37;;;;;;;;;;5013693;28;20204;-70
2023/04/19 10:20:42;;;;;;;6.50;2.80;;;;;;;;;;4995854;28;20720;-69
2023/04/19 10:23:08;;;;;;;5.17;2.60;;;;;;;;;;5010104;28;20246;-70
2023/04/19 10:25:36;;;;;;;3.03;2.70;;;;;;;;;;5014582;28;20571;-71
2023/04/19 10:28:02;;;;;;;3.10;2.53;;;;;;;;;;4996672;28;20203;-70
2023/04/19 10:30:28;;;;;;;6.37;2.60;;;;;;;;;;5014020;28;20548;-70
2023/04/19 10:32:55;;;;;;;3.80;2.30;;;;;;;;;;4996917;28;20184;-70
2023/04/19 10:35:23;;;;;;;3.27;2.40;;;;;;;;;;4995960;28;20191;-70
2023/04/19 10:38:03;;;;;;;4.07;2.73;;;;;;;;;;5013490;28;20223;-69
2023/04/19 10:40:47;;;;;;;4.23;2.70;;;;;;;;;;5013216;28;20176;-70
2023/04/19 10:43:15;;;;;;;6.13;3.10;;;;;;;;;;5013297;28;20184;-71
2023/04/19 10:45:40;;;;;;;10.57;2.87;;;;;;;;;;4995571;28;20208;-70
2023/04/19 10:48:32;;;;;;;9.37;3.17;;;;;;;;;;5012983;28;20287;-70
2023/04/19 10:50:58;;;;;;;5.53;2.87;;;;;;;;;;4995670;28;20172;-69
2023/04/19 10:53:53;;;;;;;9.87;3.10;;;;;;;;;;5013046;28;20183;-69
2023/04/19 10:56:40;;;;;;;7.07;3.27;;;;;;;;;;4979016;28;20657;-70
2023/04/19 10:59:13;;;;;;;3.77;3.10;;;;;;;;;;5013167;28;20291;-70
2023/04/19 11:01:50;;;;;;;4.77;2.67;;;;;;;;;;4995386;28;20263;-70
2023/04/19 11:04:19;;;;;;;3.30;2.57;;;;;;;;;;5012833;28;20203;-71
2023/04/19 11:06:51;;;;;;;2.90;2.30;;;;;;;;;;4995262;28;20214;-70
2023/04/19 11:09:31;;;;;;;2.53;2.27;;;;;;;;;;4995318;28;20172;-70
2023/04/19 11:11:58;;;;;;;3.40;2.80;;;;;;;;;;5012963;28;20218;-70
2023/04/19 11:14:25;;;;;;;2.53;2.23;;;;;;;;;;5012898;28;20180;-70
2023/04/19 11:16:51;;;;;;;4.17;3.23;;;;;;;;;;4995098;28;20706;-71
2023/04/19 11:19:17;;;;;;;3.33;2.93;;;;;;;;;;4995324;28;20183;-71
2023/04/19 11:21:44;;;;;;;6.03;2.87;;;;;;;;;;5012814;28;20180;-70
2023/04/19 11:24:11;;;;;;;3.33;2.60;;;;;;;;;;5014802;28;20206;-71
2023/04/19 11:26:37;;;;;;;3.30;2.33;;;;;;;;;;4998637;28;20204;-70
2023/04/19 11:29:05;;;;;;;3.43;2.80;;;;;;;;;;5016109;28;20184;-70
2023/04/19 11:31:34;;;;;;;3.40;2.50;;;;;;;;;;4998564;28;20184;-70
2023/04/19 11:34:00;;;;;;;3.60;2.60;;;;;;;;;;5016063;28;20226;-70
2023/04/19 11:36:26;;;;;;;5.73;2.73;;;;;;;;;;5016066;28;20674;-70
2023/04/19 11:38:52;;;;;;;2.80;2.40;;;;;;;;;;5016164;28;20203;-71
2023/04/19 11:41:18;;;;;;;5.63;3.23;;;;;;;;;;5015988;28;20643;-70
2023/04/19 11:43:45;;;;;;;3.90;2.73;;;;;;;;;;5015992;28;20186;-70
2023/04/19 11:46:12;;;;;;;5.87;2.87;;;;;;;;;;4998454;28;20724;-71
2023/04/19 11:48:38;;;;;;;2.83;2.63;;;;;;;;;;4998430;28;20645;-71
2023/04/19 11:51:04;;;;;;;5.20;2.93;;;;;;;;;;4998373;28;20207;-71
2023/04/19 11:53:31;;;;;;;4.63;3.10;;;;;;;;;;4998245;28;20211;-70
2023/04/19 11:56:03;;;;;;;3.03;2.80;;;;;;;;;;5015758;28;20183;-70
2023/04/19 11:58:30;;;;;;;3.97;3.20;;;;;;;;;;4997963;28;20194;-70
2023/04/19 12:00:59;;;;;;;3.10;2.60;;;;;;;;;;5015948;28;20184;-70
2023/04/19 12:03:25;;;;;;;5.20;3.17;;;;;;;;;;4998288;28;20564;-70
2023/04/19 12:05:55;;;;;;;4.60;3.40;;;;;;;;;;4997893;28;20579;-70
2023/04/19 12:08:31;;;;;;;5.50;3.10;;;;;;;;;;5015720;28;20200;-71
2023/04/19 12:10:58;;;;;;;4.17;3.40;;;;;;;;;;4998061;28;20175;-70
2023/04/19 12:13:25;;;;;;;3.73;3.20;;;;;;;;;;4998015;28;20216;-70
2023/04/19 12:15:51;;;;;;;5.00;3.50;;;;;;;;;;5015461;28;20175;-70
2023/04/19 12:18:17;;;;;;;3.60;2.87;;;;;;;;;;5015373;28;20693;-70
2023/04/19 12:20:47;;;;;;;8.60;3.07;;;;;;;;;;4997765;28;20330;-70
2023/04/19 12:23:14;;;;;;;3.80;3.20;;;;;;;;;;5016296;28;20601;-70
2023/04/19 12:25:41;;;;;;;3.23;2.87;;;;;;;;;;5015470;28;20277;-70
2023/04/19 12:28:06;;;;;;;4.27;3.13;;;;;;;;;;5015209;28;20200;-69
2023/04/19 12:30:34;;;;;;;5.20;3.63;;;;;;;;;;5015018;28;20524;-70
2023/04/19 12:33:00;;;;;;;7.37;3.60;;;;;;;;;;4997428;28;20267;-70
2023/04/19 12:35:26;;;;;;;6.57;3.40;;;;;;;;;;4996619;28;20627;-70
2023/04/19 12:37:52;;;;;;;4.10;3.37;;;;;;;;;;5014836;28;20242;-71
2023/04/19 12:40:18;;;;;;;3.70;2.83;;;;;;;;;;4997196;28;20206;-70
2023/04/19 12:42:44;;;;;;;4.53;2.60;;;;;;;;;;4997291;28;20191;-71
2023/04/19 12:45:11;;;;;;;4.77;3.10;;;;;;;;;;5014656;28;20203;-71
2023/04/19 12:47:37;;;;;;;3.97;3.10;;;;;;;;;;5015044;28;20199;-71
2023/04/19 12:50:03;;;;;;;3.60;3.30;;;;;;;;;;5014652;28;20187;-70
2023/04/19 12:52:29;;;;;;;3.73;2.97;;;;;;;;;;4997084;28;20180;-71
2023/04/19 12:54:55;;;;;;;4.10;3.00;;;;;;;;;;5015106;28;20241;-71
2023/04/19 12:57:21;;;;;;;4.30;3.00;;;;;;;;;;5014502;28;20223;-70
2023/04/19 12:59:47;;;;;;;7.07;3.63;;;;;;;;;;5014872;28;20184;-71
2023/04/19 13:02:13;;;;;;;3.83;3.30;;;;;;;;;;5014425;28;20183;-70
2023/04/19 13:04:39;;;;;;;3.27;2.97;;;;;;;;;;4996685;28;20242;-71
2023/04/19 13:07:05;;;;;;;6.13;2.77;;;;;;;;;;5014310;28;20204;-71
2023/04/19 13:09:31;;;;;;;3.93;3.13;;;;;;;;;;5014375;28;20279;-70
2023/04/19 13:11:57;;;;;;;6.90;3.60;;;;;;;;;;5014398;28;20203;-70
2023/04/19 13:14:23;;;;;;;5.77;3.37;;;;;;;;;;4996674;28;20184;-71
2023/04/19 13:16:49;;;;;;;6.03;3.60;;;;;;;;;;4996614;28;20207;-70
2023/04/19 13:19:15;;;;;;;5.37;3.80;;;;;;;;;;5014656;28;20630;-71
2023/04/19 13:21:41;;;;;;;10.67;3.23;;;;;;;;;;5014238;28;20176;-71
2023/04/19 13:24:07;;;;;;;7.87;4.03;;;;;;;;;;5014021;28;20194;-70
2023/04/19 13:26:33;;;;;;;4.63;2.97;;;;;;;;;;5014001;28;20192;-70
2023/04/19 13:29:00;;;;;;;8.03;4.00;;;;;;;;;;4996455;28;20183;-70
2023/04/19 13:31:26;;;;;;;3.40;3.10;;;;;;;;;;5014030;28;20180;-70
2023/04/19 13:33:52;;;;;;;8.00;4.07;;;;;;;;;;5014431;28;20233;-69
2023/04/19 13:36:18;;;;;;;4.97;3.27;;;;;;;;;;4996512;28;20190;-70
2023/04/19 13:38:45;;;;;;;8.33;3.67;;;;;;;;;;4996820;28;20677;-70
2023/04/19 13:41:11;;;;;;;6.00;3.40;;;;;;;;;;5014147;28;20554;-71
2023/04/19 13:43:37;;;;;;;4.53;3.60;;;;;;;;;;5013889;28;20554;-71
2023/04/19 13:46:03;;;;;;;4.23;3.30;;;;;;;;;;5014030;28;20204;-71
2023/04/19 13:48:29;;;;;;;3.77;3.47;;;;;;;;;;5013817;28;20179;-71
2023/04/19 13:50:55;;;;;;;3.67;3.23;;;;;;;;;;4996323;28;20267;-70
2023/04/19 13:53:22;;;;;;;5.13;2.97;;;;;;;;;;5013889;28;20242;-70
2023/04/19 13:55:48;;;;;;;4.93;3.30;;;;;;;;;;4995920;28;20565;-69
2023/04/19 13:58:14;;;;;;;4.13;3.63;;;;;;;;;;5013317;28;20686;-72
2023/04/19 14:00:40;;;;;;;5.87;3.70;;;;;;;;;;4996540;28;20179;-70
2023/04/19 14:03:06;;;;;;;5.23;3.70;;;;;;;;;;4995934;28;20180;-72
2023/04/19 14:05:32;;;;;;;5.17;3.40;;;;;;;;;;5013626;28;20289;-70
2023/04/19 14:07:58;;;;;;;6.67;3.70;;;;;;;;;;4995862;28;20257;-71
2023/04/19 14:10:24;;;;;;;6.27;3.53;;;;;;;;;;4995753;28;20642;-70
2023/04/19 14:12:51;;;;;;;9.03;3.60;;;;;;;;;;4995669;28;20274;-70
2023/04/19 14:15:19;;;;;;;4.10;3.70;;;;;;;;;;4995769;28;20194;-71
2023/04/19 14:17:45;;;;;;;6.13;3.40;;;;;;;;;;5013434;28;20670;-71
2023/04/19 14:20:11;;;;;;;3.77;3.10;;;;;;;;;;4995697;28;20188;-71
2023/04/19 14:22:38;;;;;;;5.23;3.70;;;;;;;;;;5013657;28;20187;-70
2023/04/19 14:25:04;;;;;;;9.13;3.73;;;;;;;;;;4995646;28;20603;-70
2023/04/19 14:27:30;;;;;;;4.33;3.50;;;;;;;;;;5013397;28;20567;-71
2023/04/19 14:29:56;;;;;;;3.70;2.73;;;;;;;;;;5013881;28;20172;-72
2023/04/19 14:32:22;;;;;;;3.77;3.47;;;;;;;;;;5013139;28;20603;-71